KHPT/HPT METAR and TAF weather

Enter ICAO airport designator
Station Type Date Time Source
KHPT METAR 2020/01/26 12:55 UTC NOAA

KHPT 261255Z AUTO 25005KT 10SM BKN013 BKN038 OVC085 M05/M05 A2993 RMK AO2


Station Type Date Time Source
KHPT Decoded METAR 2020/01/26 12:55 UTC NOAA

Station name not available
Jan 26, 2020 - 07:55 AM EST / 2020.01.26 1255 UTC
Wind: from the WSW (250 degrees) at 6 MPH (5 KT):0
Visibility: 10 mile(s):0
Sky conditions: overcast
Temperature: 23 F (-5 C)
Windchill: 15 F (-9 C):1
Dew Point: 23 F (-5 C)
Relative Humidity: 100%
Pressure (altimeter): 29.93 in. Hg (1013 hPa)
ob: KHPT 261255Z AUTO 25005KT 10SM BKN013 BKN038 OVC085 M05/M05 A2993 RMK AO2
cycle: 13

Station Type Date Time Source
KHPT TAF UTC NOAA

Error!

Example: see airport list